createdAt,value
2017-09-27T17:04:48.095Z,43.20
2017-09-27T17:05:48.047Z,43.70
2017-09-27T17:06:48.025Z,46.00
2017-09-27T17:07:48.018Z,44.60
2017-09-27T17:08:47.999Z,45.50
2017-09-27T17:09:47.981Z,44.60
2017-09-27T17:10:47.978Z,45.50
2017-09-27T17:11:47.960Z,45.80
2017-09-27T17:12:47.943Z,45.20
2017-09-27T17:13:47.936Z,46.40
2017-09-27T17:14:48.315Z,44.90
2017-09-27T17:15:48.144Z,46.40
2017-09-27T17:16:48.272Z,45.80
2017-09-27T17:17:47.891Z,45.60
2017-09-27T17:18:47.881Z,45.60
2017-09-27T17:19:47.855Z,46.50
2017-09-27T17:20:47.855Z,44.80
2017-09-27T17:21:48.249Z,44.70
2017-09-27T17:22:48.180Z,44.60
2017-09-27T17:23:48.055Z,45.10
2017-09-27T17:24:48.106Z,44.40
2017-09-27T17:25:48.120Z,46.20
2017-09-27T17:26:48.186Z,45.10
2017-09-27T17:27:48.162Z,44.80
2017-09-27T17:28:47.766Z,45.30
2017-09-27T17:29:47.929Z,45.10
2017-09-27T17:30:47.749Z,45.40
2017-09-27T17:31:47.736Z,45.50
2017-09-27T17:32:47.720Z,45.20
2017-09-27T17:33:47.723Z,45.10
2017-09-27T17:34:47.705Z,44.30
2017-09-27T17:35:47.704Z,44.60
2017-09-27T17:36:47.691Z,44.70
2017-09-27T17:37:47.672Z,45.30
2017-09-27T17:38:47.665Z,45.30
2017-09-27T17:39:47.667Z,44.90
2017-09-27T17:40:47.670Z,45.00
2017-09-27T17:41:47.644Z,45.20
2017-09-27T17:42:47.637Z,45.10
2017-09-27T17:43:47.607Z,44.70
2017-09-27T17:44:47.618Z,44.80
2017-09-27T17:45:47.606Z,45.40
2017-09-27T17:46:47.594Z,44.10
2017-09-27T17:47:47.816Z,44.70
2017-09-27T17:48:47.568Z,45.00
2017-09-27T17:49:47.856Z,45.20
2017-09-27T17:50:47.873Z,45.30
2017-09-27T17:51:47.927Z,44.60
2017-09-27T17:52:47.923Z,44.30
2017-09-27T17:53:47.783Z,45.20
2017-09-27T17:54:47.791Z,44.80
2017-09-27T17:55:47.870Z,44.60
2017-09-27T17:56:47.878Z,43.40
2017-09-27T17:57:47.773Z,44.30
2017-09-27T17:58:47.863Z,44.10
2017-09-27T17:59:47.474Z,44.50
2017-09-27T18:00:47.716Z,44.40
2017-09-27T18:01:47.784Z,44.70
2017-09-27T18:02:47.439Z,44.50
2017-09-27T18:03:47.591Z,44.20
2017-09-27T18:04:47.422Z,44.10
2017-09-27T18:05:47.416Z,44.40
2017-09-27T18:06:47.404Z,43.30
2017-09-27T18:07:47.400Z,44.20
2017-09-27T18:08:47.394Z,43.90
2017-09-27T18:09:47.376Z,44.40
2017-09-27T18:10:47.370Z,43.70
2017-09-27T18:11:47.363Z,44.20
2017-09-27T18:12:47.349Z,44.90
2017-09-27T18:13:47.378Z,43.80
2017-09-27T18:14:47.333Z,43.50
2017-09-27T18:15:47.331Z,43.50
2017-09-27T18:16:47.311Z,43.60
2017-09-27T18:17:47.304Z,43.80
2017-09-27T18:18:47.302Z,43.80
2017-09-27T18:19:47.291Z,44.30
2017-09-27T18:20:47.279Z,43.40
2017-09-27T18:21:47.266Z,44.00
2017-09-27T18:22:47.401Z,43.70
2017-09-27T18:23:47.497Z,44.10
2017-09-27T18:24:47.249Z,43.70
2017-09-27T18:25:47.235Z,43.20
2017-09-27T18:26:47.223Z,43.40
2017-09-27T18:27:47.217Z,44.80
2017-09-27T18:28:47.203Z,43.40
2017-09-27T18:29:47.235Z,43.70
2017-09-27T18:30:49.982Z,43.90
2017-09-27T18:34:22.223Z,54.80
2017-09-27T18:35:22.305Z,54.70
2017-09-27T18:36:22.264Z,55.80
2017-09-27T18:37:22.380Z,55.00
2017-09-27T18:38:22.202Z,54.00
2017-09-27T18:39:22.229Z,54.40
2017-09-27T18:40:21.883Z,52.50
2017-09-27T18:42:21.839Z,53.20
2017-09-27T18:43:21.843Z,52.20
2017-09-27T18:44:21.817Z,52.80
2017-09-27T18:45:22.073Z,53.00
2017-09-27T18:46:21.783Z,51.80
2017-09-27T18:47:21.984Z,51.30
2017-09-27T18:48:21.770Z,52.30
2017-09-27T18:49:21.776Z,52.80
2017-09-27T18:50:21.732Z,53.20
2017-09-27T18:51:21.811Z,52.90
2017-09-27T18:52:21.697Z,53.80
2017-09-27T18:53:21.737Z,52.70
2017-09-27T18:54:21.697Z,53.90
2017-09-27T18:55:21.666Z,51.70
2017-09-27T18:56:21.699Z,49.90
2017-09-27T18:57:21.773Z,51.50
2017-09-27T18:58:21.638Z,51.70
2017-09-27T18:59:21.718Z,53.40
2017-09-27T19:00:21.732Z,52.40
2017-09-27T19:01:21.792Z,52.40
2017-09-27T19:02:21.666Z,52.50
2017-09-27T19:03:21.655Z,52.60
2017-09-27T19:04:21.553Z,53.60
2017-09-27T19:06:22.038Z,53.00
2017-09-27T19:07:21.526Z,52.90
2017-09-27T19:08:21.513Z,52.30
2017-09-27T19:09:21.542Z,52.00
2017-09-27T19:10:21.537Z,52.40
2017-09-27T19:11:21.550Z,52.80
2017-09-27T19:12:21.456Z,51.10
2017-09-27T19:13:21.434Z,52.50
2017-09-27T19:14:21.363Z,52.40
2017-09-27T19:15:21.386Z,52.40
2017-09-27T19:16:21.358Z,50.40
2017-09-27T19:17:21.352Z,50.50
2017-09-27T19:18:21.340Z,51.00
2017-09-27T19:19:21.405Z,51.70
2017-09-27T19:20:21.298Z,50.70
2017-09-27T19:21:21.284Z,51.30
2017-09-27T19:22:21.243Z,49.40
2017-09-27T19:23:21.337Z,51.10
2017-09-27T19:24:21.214Z,50.60
2017-09-27T19:25:21.236Z,50.50
2017-09-27T19:26:21.179Z,49.40
2017-09-27T19:27:21.186Z,50.10
2017-09-27T19:28:21.267Z,49.50
2017-09-27T19:29:21.142Z,49.70
2017-09-27T19:30:21.172Z,49.20
2017-09-27T19:31:21.108Z,51.10
2017-09-27T19:32:21.186Z,51.40
2017-09-27T19:33:21.071Z,50.90
2017-09-27T19:34:21.063Z,49.90
2017-09-27T19:35:21.056Z,49.50
2017-09-27T19:36:21.104Z,50.40
2017-09-27T19:37:21.009Z,49.90
2017-09-27T19:38:21.034Z,49.80
2017-09-27T19:39:21.002Z,48.50
2017-09-27T19:40:21.065Z,49.90
2017-09-27T19:41:20.948Z,49.70
2017-09-27T19:42:21.063Z,49.80
2017-09-27T19:43:20.918Z,50.20
2017-09-27T19:44:20.912Z,49.60
2017-09-27T19:45:20.984Z,49.00
2017-09-27T19:46:20.873Z,49.80
2017-09-27T19:47:20.892Z,49.90
2017-09-27T19:48:20.834Z,48.90
2017-09-27T19:49:20.915Z,49.50
2017-09-27T19:50:20.806Z,51.20
2017-09-27T19:51:20.828Z,49.90
2017-09-27T19:52:20.781Z,52.20
2017-09-27T19:53:20.836Z,51.60
2017-09-27T19:54:20.745Z,51.60
2017-09-27T19:55:20.846Z,50.70
2017-09-27T19:56:21.557Z,51.20
2017-09-27T19:57:20.688Z,51.60
2017-09-27T19:58:20.768Z,51.50
2017-09-27T19:59:20.668Z,50.40
2017-09-27T20:00:20.655Z,51.30
2017-09-27T20:01:20.621Z,50.70
2017-09-27T20:02:20.693Z,51.30
2017-09-27T20:03:20.591Z,50.10
2017-09-27T20:04:20.585Z,52.20
2017-09-27T20:05:20.565Z,50.80
2017-09-27T20:06:20.632Z,51.20
2017-09-27T20:07:20.518Z,52.20
2017-09-27T20:08:20.514Z,52.80
2017-09-27T20:09:20.506Z,53.10
2017-09-27T20:10:20.543Z,53.50
2017-09-27T20:11:20.453Z,53.10
2017-09-27T20:12:20.561Z,53.00
2017-09-27T20:13:20.429Z,53.90
2017-09-27T20:14:20.472Z,53.10
2017-09-27T20:15:20.406Z,51.50
2017-09-27T20:16:20.478Z,51.90
2017-09-27T20:17:20.372Z,51.70
2017-09-27T20:18:20.396Z,52.90
2017-09-27T20:19:20.313Z,52.60
2017-09-27T20:20:20.407Z,52.30
2017-09-27T20:21:20.286Z,51.90
2017-09-27T20:22:20.317Z,51.10
2017-09-27T20:23:20.257Z,51.40
2017-09-27T20:24:20.336Z,52.20
2017-09-27T20:25:20.217Z,51.40
2017-09-27T20:26:20.256Z,51.60
2017-09-27T20:27:20.209Z,52.00
2017-09-27T20:28:20.268Z,51.20
2017-09-27T20:29:20.158Z,53.10
2017-09-27T20:30:20.177Z,53.00
2017-09-27T20:31:20.152Z,51.80
2017-09-27T20:32:20.184Z,51.50
2017-09-27T20:33:20.081Z,52.00
2017-09-27T20:34:20.098Z,50.40
2017-09-27T20:35:20.039Z,50.80
2017-09-27T20:36:20.121Z,50.60
2017-09-27T20:37:20.013Z,49.90
2017-09-27T20:38:20.035Z,50.80
2017-09-27T20:39:19.987Z,50.50
2017-09-27T20:40:20.050Z,50.10
2017-09-27T20:41:19.940Z,50.40
2017-09-27T20:42:19.961Z,50.20
2017-09-27T20:43:19.896Z,50.20
2017-09-27T20:44:19.966Z,50.30
2017-09-27T20:45:19.903Z,50.20
2017-09-27T20:46:19.985Z,50.20
2017-09-27T20:47:19.849Z,50.10
2017-09-27T20:48:19.889Z,49.60
2017-09-27T20:49:19.804Z,50.10
2017-09-27T20:50:19.910Z,50.70
2017-09-27T20:51:19.787Z,50.10
2017-09-27T20:52:19.838Z,50.20
2017-09-27T20:53:19.727Z,49.90
2017-09-27T20:54:19.833Z,50.60
2017-09-27T20:55:19.695Z,48.80
2017-09-27T20:56:19.745Z,49.00
2017-09-27T20:57:19.676Z,49.40
2017-09-27T20:58:19.773Z,50.00
2017-09-27T20:59:19.618Z,49.10
2017-09-27T21:00:19.675Z,49.80
2017-09-27T21:01:19.583Z,50.40
2017-09-27T21:02:19.708Z,50.20
2017-09-27T21:03:19.562Z,50.70
2017-09-27T21:05:19.503Z,51.40
2017-09-27T21:06:19.714Z,52.50
2017-09-27T21:07:19.468Z,51.10
2017-09-27T21:08:19.529Z,51.70
2017-09-27T21:09:19.462Z,51.10
2017-09-27T21:10:19.558Z,52.30
2017-09-27T21:11:19.413Z,51.80
2017-09-27T21:12:19.451Z,51.30
2017-09-27T21:13:19.389Z,50.30
2017-09-27T21:14:19.467Z,51.60
2017-09-27T21:15:19.341Z,51.80
2017-09-27T21:16:19.382Z,49.50
2017-09-27T21:17:19.301Z,50.60
2017-09-27T21:18:19.408Z,50.60
2017-09-27T21:19:19.269Z,51.20
2017-09-27T21:20:19.315Z,50.10
2017-09-27T21:21:19.236Z,50.60
2017-09-27T21:22:19.326Z,50.00
2017-09-27T21:23:19.198Z,50.40
2017-09-27T21:24:19.245Z,50.30
2017-09-27T21:25:19.158Z,51.30
2017-09-27T21:26:19.251Z,51.10
2017-09-27T21:27:19.128Z,50.80
2017-09-27T21:28:19.172Z,51.80
2017-09-27T21:29:19.084Z,51.60
2017-09-27T21:30:19.184Z,52.00
2017-09-27T21:31:19.053Z,52.00
2017-09-27T21:32:19.108Z,50.40
2017-09-27T21:33:19.007Z,51.50
2017-09-27T21:34:19.107Z,49.90
2017-09-27T21:35:18.978Z,50.80
2017-09-27T21:36:19.018Z,49.70
2017-09-27T21:37:18.930Z,50.70
2017-09-27T21:38:19.036Z,51.60
2017-09-27T21:39:18.897Z,48.90
2017-09-27T21:40:18.944Z,50.20
2017-09-27T21:41:18.859Z,49.80
2017-09-27T21:42:18.964Z,50.60
2017-09-27T21:43:18.819Z,52.20
2017-09-27T21:44:18.871Z,51.60
2017-09-27T21:45:18.771Z,51.50
2017-09-27T21:46:18.884Z,51.60
2017-09-27T21:47:18.772Z,52.30
2017-09-27T21:48:18.798Z,51.30
2017-09-27T21:49:18.695Z,50.70
2017-09-27T21:50:18.727Z,51.70
2017-09-27T21:51:18.673Z,51.30
2017-09-27T21:52:18.740Z,50.70
2017-09-27T21:53:18.634Z,51.30
2017-09-27T21:54:18.634Z,50.70
2017-09-27T21:55:18.599Z,51.30
2017-09-27T21:56:18.645Z,51.40
2017-09-27T21:57:18.551Z,51.00
2017-09-27T21:58:18.652Z,51.60
2017-09-27T21:59:18.511Z,51.20
2017-09-27T22:00:18.571Z,54.00
2017-09-27T22:01:18.482Z,52.80
2017-09-27T22:02:18.601Z,52.80
2017-09-27T22:03:18.449Z,53.50
2017-09-27T22:04:18.501Z,52.90
2017-09-27T22:05:18.409Z,52.00
2017-09-27T22:06:18.408Z,52.80
2017-09-27T22:07:18.373Z,53.40
2017-09-27T22:08:18.424Z,54.40
2017-09-27T22:09:18.329Z,53.80
2017-09-27T22:10:18.363Z,54.40
2017-09-27T22:11:18.308Z,54.20
2017-09-27T22:12:18.363Z,53.70
2017-09-27T22:13:18.238Z,54.40
2017-09-27T22:14:18.266Z,53.70
2017-09-27T22:15:18.202Z,53.60
2017-09-27T22:16:18.284Z,54.30
2017-09-27T22:17:18.166Z,54.30
2017-09-27T22:18:18.198Z,54.50
2017-09-27T22:19:18.125Z,54.40
2017-09-27T22:20:18.221Z,55.00
2017-09-27T22:21:18.093Z,55.00
2017-09-27T22:22:18.132Z,55.40
2017-09-27T22:23:18.047Z,54.90
2017-09-27T22:24:18.143Z,55.10
2017-09-27T22:25:18.024Z,54.90
2017-09-27T22:26:18.053Z,55.40
2017-09-27T22:27:17.979Z,55.40
2017-09-27T22:28:18.065Z,56.00
2017-09-27T22:29:17.936Z,57.00
2017-09-27T22:30:17.974Z,55.00
2017-09-27T22:31:17.925Z,55.10
2017-09-27T22:32:17.996Z,54.70
2017-09-27T22:33:17.864Z,54.30
2017-09-27T22:34:17.919Z,53.70
2017-09-27T22:35:17.814Z,55.50
2017-09-27T22:36:17.925Z,54.80
2017-09-27T22:37:17.784Z,55.30
2017-09-27T22:38:17.838Z,55.50
2017-09-27T22:39:17.748Z,54.80
2017-09-27T22:40:17.843Z,55.40
2017-09-27T22:41:17.710Z,56.50
2017-09-27T22:42:17.760Z,55.70
2017-09-27T22:43:17.666Z,55.60
2017-09-27T22:44:17.816Z,56.00
2017-09-27T22:45:17.625Z,55.20
2017-09-27T22:46:17.680Z,57.80
2017-09-27T22:47:17.585Z,56.70
2017-09-27T22:48:17.585Z,55.80
2017-09-27T22:49:17.545Z,55.60
2017-09-27T22:50:17.612Z,57.80
2017-09-27T22:51:17.498Z,59.30
2017-09-27T22:52:17.521Z,55.30
2017-09-27T22:53:17.472Z,56.20
2017-09-27T22:54:17.532Z,55.50
2017-09-27T22:55:17.422Z,55.80
2017-09-27T22:56:17.447Z,55.40
2017-09-27T22:57:17.408Z,57.20
2017-09-27T22:58:17.457Z,56.20
2017-09-27T22:59:17.341Z,55.90
2017-09-27T23:00:17.375Z,57.60
2017-09-27T23:01:17.308Z,56.30
2017-09-27T23:02:17.398Z,56.90
2017-09-27T23:03:17.277Z,55.60
2017-09-27T23:04:17.308Z,55.70
2017-09-27T23:05:17.230Z,56.50
2017-09-27T23:06:17.317Z,56.90
2017-09-27T23:07:17.189Z,56.30
2017-09-27T23:08:17.221Z,57.30
2017-09-27T23:09:17.144Z,58.30
2017-09-27T23:10:17.232Z,57.90
2017-09-27T23:11:17.108Z,56.70
2017-09-27T23:12:17.153Z,57.50
2017-09-27T23:13:17.078Z,56.90
2017-09-27T23:14:17.172Z,55.30
2017-09-27T23:15:17.057Z,55.80
2017-09-27T23:16:17.078Z,56.50
2017-09-27T23:17:16.989Z,56.80
2017-09-27T23:18:17.095Z,55.90
2017-09-27T23:19:16.958Z,56.00
2017-09-27T23:20:17.029Z,56.60
2017-09-27T23:21:16.936Z,58.10
2017-09-27T23:22:17.017Z,55.70
2017-09-27T23:23:16.880Z,56.90
2017-09-27T23:24:16.933Z,56.60
2017-09-27T23:25:16.847Z,57.00
2017-09-27T23:26:16.956Z,56.40
2017-09-27T23:27:16.799Z,57.00
2017-09-27T23:28:16.852Z,57.60
2017-09-27T23:29:16.761Z,57.70
2017-09-27T23:30:16.869Z,58.10
2017-09-27T23:31:16.730Z,58.00
2017-09-27T23:32:16.792Z,58.60
2017-09-27T23:33:16.687Z,57.60
2017-09-27T23:34:16.799Z,58.80
2017-09-27T23:35:16.645Z,58.60
2017-09-27T23:36:16.705Z,56.60
2017-09-27T23:37:16.608Z,57.40
2017-09-27T23:38:16.618Z,57.90
2017-09-27T23:39:16.570Z,59.70
2017-09-27T23:40:16.633Z,58.00
2017-09-27T23:41:16.525Z,57.30
2017-09-27T23:42:16.545Z,58.00
2017-09-27T23:43:16.482Z,58.20
2017-09-27T23:44:16.471Z,57.40
2017-09-27T23:45:16.565Z,58.20
2017-09-27T23:46:16.421Z,57.80
2017-09-27T23:47:16.479Z,57.90
2017-09-27T23:48:16.387Z,58.80
2017-09-27T23:49:16.507Z,57.60
2017-09-27T23:50:16.347Z,57.40
2017-09-27T23:51:16.454Z,59.50
2017-09-27T23:52:16.313Z,58.50
2017-09-27T23:53:16.317Z,59.70
2017-09-27T23:54:16.267Z,57.90
2017-09-27T23:55:16.334Z,58.10
2017-09-27T23:56:16.227Z,59.70
2017-09-27T23:57:16.246Z,58.50
2017-09-27T23:58:16.189Z,58.70
2017-09-27T23:59:16.263Z,57.90
